Time;durP1;ratioP1;P1;durP2;ratioP2;P2;SDS_P1;SDS_P2;PMS_P1;PMS_P2;Temp;Humidity;BMP_temperature;BMP_pressure;BME280_temperature;BME280_humidity;BME280_pressure;Samples;Min_cycle;Max_cycle;Signal;HPM_P1;HPM_P2
2022/04/21 00:00:00;;;;;;;8.85;5.10;;;;;;;;;;5029826;28;20178;-66
2022/04/21 00:02:25;;;;;;;7.22;4.85;;;;;;;;;;5016362;28;20275;-66
2022/04/21 00:04:50;;;;;;;7.97;5.10;;;;;;;;;;5017921;28;20339;-66
2022/04/21 00:07:16;;;;;;;10.68;5.10;;;;;;;;;;5023617;28;20300;-66
2022/04/21 00:09:41;;;;;;;8.15;5.28;;;;;;;;;;5027168;28;20429;-66
2022/04/21 00:12:07;;;;;;;7.95;5.25;;;;;;;;;;5025304;28;20234;-66
2022/04/21 00:14:32;;;;;;;7.97;5.40;;;;;;;;;;5026991;28;20237;-66
2022/04/21 00:16:58;;;;;;;11.25;4.88;;;;;;;;;;5015845;28;20183;-66
2022/04/21 00:19:23;;;;;;;9.52;5.20;;;;;;;;;;5024638;28;20218;-66
2022/04/21 00:24:32;;;;;;;10.73;5.05;;;;;;;;;;5015879;28;20594;-66
2022/04/21 00:26:57;;;;;;;6.93;4.68;;;;;;;;;;5023832;28;20182;-67
2022/04/21 00:29:23;;;;;;;7.97;4.82;;;;;;;;;;5027880;28;20769;-66
2022/04/21 00:31:49;;;;;;;8.40;5.07;;;;;;;;;;5027015;28;20210;-66
2022/04/21 00:34:14;;;;;;;8.40;4.70;;;;;;;;;;5028943;28;20267;-66
2022/04/21 00:36:39;;;;;;;8.20;5.03;;;;;;;;;;5022104;28;20189;-66
2022/04/21 00:39:05;;;;;;;9.40;4.40;;;;;;;;;;5025360;28;20178;-66
2022/04/21 00:41:30;;;;;;;9.68;4.40;;;;;;;;;;5020482;28;20341;-66
2022/04/21 00:43:56;;;;;;;7.82;4.60;;;;;;;;;;5018550;28;20230;-66
2022/04/21 00:46:22;;;;;;;6.10;4.30;;;;;;;;;;5026353;28;20197;-66
2022/04/21 00:48:49;;;;;;;7.03;4.50;;;;;;;;;;5027418;28;20198;-67
2022/04/21 00:51:15;;;;;;;7.88;4.10;;;;;;;;;;5023686;28;20651;-67
2022/04/21 00:53:40;;;;;;;9.27;4.90;;;;;;;;;;5015544;28;20195;-66
2022/04/21 00:56:06;;;;;;;9.00;4.75;;;;;;;;;;5028460;28;20258;-66
2022/04/21 00:58:35;;;;;;;6.40;4.40;;;;;;;;;;5028158;28;20558;-66
2022/04/21 01:01:01;;;;;;;7.60;4.55;;;;;;;;;;5018812;28;20371;-67
2022/04/21 01:03:27;;;;;;;7.03;4.40;;;;;;;;;;5020225;28;20268;-66
2022/04/21 01:05:52;;;;;;;7.78;4.80;;;;;;;;;;5016365;28;20214;-66
2022/04/21 01:08:17;;;;;;;7.40;4.43;;;;;;;;;;5027548;28;20249;-66
2022/04/21 01:10:43;;;;;;;9.17;4.47;;;;;;;;;;5016062;28;20278;-66
2022/04/21 01:13:10;;;;;;;6.20;4.10;;;;;;;;;;5022925;28;20313;-68
2022/04/21 01:15:36;;;;;;;6.47;4.28;;;;;;;;;;5023348;28;20602;-66
2022/04/21 01:18:03;;;;;;;9.23;5.03;;;;;;;;;;5020721;28;20273;-66
2022/04/21 01:20:29;;;;;;;9.38;4.30;;;;;;;;;;5019656;28;20217;-66
2022/04/21 01:22:54;;;;;;;6.68;4.68;;;;;;;;;;5021787;28;20327;-66
2022/04/21 01:25:21;;;;;;;6.30;4.27;;;;;;;;;;5018760;28;20195;-66
2022/04/21 01:27:48;;;;;;;8.13;4.40;;;;;;;;;;5016649;28;20206;-66
2022/04/21 01:30:14;;;;;;;6.70;4.10;;;;;;;;;;5022663;28;20268;-66
2022/04/21 01:32:48;;;;;;;8.97;4.30;;;;;;;;;;5022601;28;20195;-66
2022/04/21 01:35:13;;;;;;;7.25;4.55;;;;;;;;;;5022776;28;20189;-66
2022/04/21 01:43:07;;;;;;;10.93;4.75;;;;;;;;;;5023319;28;20193;-66
2022/04/21 01:45:33;;;;;;;6.63;4.78;;;;;;;;;;5013597;28;20637;-66
2022/04/21 01:47:59;;;;;;;9.73;4.85;;;;;;;;;;5023629;28;20218;-66
2022/04/21 01:50:25;;;;;;;6.30;4.15;;;;;;;;;;5022028;28;20678;-65
2022/04/21 01:52:51;;;;;;;10.18;4.40;;;;;;;;;;5020330;28;20627;-65
2022/04/21 01:55:17;;;;;;;8.60;5.22;;;;;;;;;;5017961;28;20364;-66
2022/04/21 01:57:42;;;;;;;6.53;3.92;;;;;;;;;;5010661;28;20189;-66
2022/04/21 02:00:08;;;;;;;9.02;5.20;;;;;;;;;;5027435;28;20538;-66
2022/04/21 02:02:34;;;;;;;6.78;4.38;;;;;;;;;;5018101;28;20190;-66
2022/04/21 02:05:00;;;;;;;8.07;4.60;;;;;;;;;;5026210;28;20560;-65
2022/04/21 02:07:27;;;;;;;6.50;4.20;;;;;;;;;;5025431;28;20857;-66
2022/04/21 02:09:53;;;;;;;8.10;4.05;;;;;;;;;;5019441;28;20186;-66
2022/04/21 02:12:21;;;;;;;7.38;4.60;;;;;;;;;;5021196;28;20222;-65
2022/04/21 02:14:46;;;;;;;8.48;4.72;;;;;;;;;;5021021;28;20286;-66
2022/04/21 02:17:12;;;;;;;6.70;4.68;;;;;;;;;;5016549;28;20266;-65
2022/04/21 02:19:37;;;;;;;7.83;4.40;;;;;;;;;;5023864;28;20186;-65
2022/04/21 02:22:02;;;;;;;7.73;4.83;;;;;;;;;;5016539;28;20260;-65
2022/04/21 02:24:28;;;;;;;6.27;4.50;;;;;;;;;;5015548;28;20241;-65
2022/04/21 02:26:53;;;;;;;7.90;4.23;;;;;;;;;;5015336;28;20217;-65
2022/04/21 02:29:18;;;;;;;8.57;4.30;;;;;;;;;;5020524;28;20194;-65
2022/04/21 02:31:44;;;;;;;8.63;4.10;;;;;;;;;;5018477;28;20214;-65
2022/04/21 02:34:09;;;;;;;7.60;5.00;;;;;;;;;;5013968;28;20213;-65
2022/04/21 02:36:35;;;;;;;6.33;4.33;;;;;;;;;;5023594;28;20564;-65
2022/04/21 02:39:00;;;;;;;7.93;4.67;;;;;;;;;;5025200;28;20217;-66
2022/04/21 02:41:26;;;;;;;6.13;4.40;;;;;;;;;;5008823;28;20564;-66
2022/04/21 02:43:52;;;;;;;6.57;4.70;;;;;;;;;;5014295;28;20190;-66
2022/04/21 02:46:17;;;;;;;8.50;5.23;;;;;;;;;;5015819;28;20191;-65
2022/04/21 02:48:43;;;;;;;10.10;4.90;;;;;;;;;;5015083;28;20241;-65
2022/04/21 02:51:09;;;;;;;7.97;4.87;;;;;;;;;;5011148;28;20202;-65
2022/04/21 02:59:03;;;;;;;7.50;4.77;;;;;;;;;;5019099;28;20202;-65
2022/04/21 03:01:29;;;;;;;7.53;4.80;;;;;;;;;;5024080;28;20744;-65
2022/04/21 03:03:54;;;;;;;9.13;4.27;;;;;;;;;;5017083;28;20193;-65
2022/04/21 03:06:20;;;;;;;5.83;4.33;;;;;;;;;;5021453;28;20275;-65
2022/04/21 03:08:46;;;;;;;10.43;5.20;;;;;;;;;;5023600;28;20221;-66
2022/04/21 03:11:11;;;;;;;8.33;4.80;;;;;;;;;;5013714;28;20223;-66
2022/04/21 03:13:36;;;;;;;6.70;4.70;;;;;;;;;;5016224;28;20647;-66
2022/04/21 03:16:02;;;;;;;8.17;5.17;;;;;;;;;;5019542;28;20179;-66
2022/04/21 03:18:27;;;;;;;8.00;4.37;;;;;;;;;;5020267;28;20190;-66
2022/04/21 03:26:20;;;;;;;8.13;4.33;;;;;;;;;;5029223;28;20941;-66
2022/04/21 03:28:46;;;;;;;8.03;4.90;;;;;;;;;;5027946;28;20283;-66
2022/04/21 03:31:11;;;;;;;9.17;4.90;;;;;;;;;;5026964;28;20205;-65
2022/04/21 03:33:36;;;;;;;9.67;4.97;;;;;;;;;;5026243;28;20185;-66
2022/04/21 03:36:02;;;;;;;7.80;4.67;;;;;;;;;;5028242;28;20190;-65
2022/04/21 03:38:27;;;;;;;7.37;4.60;;;;;;;;;;5024863;28;20190;-65
2022/04/21 03:40:53;;;;;;;6.67;4.57;;;;;;;;;;5024059;28;20178;-65
2022/04/21 03:43:18;;;;;;;10.40;4.40;;;;;;;;;;5021796;28;20194;-66
2022/04/21 03:45:43;;;;;;;7.37;4.67;;;;;;;;;;5028446;28;20583;-66
2022/04/21 03:48:08;;;;;;;8.30;5.00;;;;;;;;;;5027338;28;20701;-66
2022/04/21 03:50:34;;;;;;;6.83;4.70;;;;;;;;;;5028566;28;20699;-66
2022/04/21 03:53:00;;;;;;;7.17;4.80;;;;;;;;;;5025294;28;20190;-66
2022/04/21 03:55:25;;;;;;;6.37;4.97;;;;;;;;;;5028401;28;20189;-66
2022/04/21 03:57:51;;;;;;;8.10;5.00;;;;;;;;;;5024197;28;20266;-66
2022/04/21 04:00:16;;;;;;;8.53;4.93;;;;;;;;;;5029686;28;20564;-66
2022/04/21 04:02:42;;;;;;;8.27;4.70;;;;;;;;;;5021505;28;20182;-66
2022/04/21 04:05:07;;;;;;;8.20;4.87;;;;;;;;;;5023499;28;20211;-66
2022/04/21 04:13:00;;;;;;;6.87;4.40;;;;;;;;;;5026227;28;20252;-66
2022/04/21 04:15:26;;;;;;;7.97;4.70;;;;;;;;;;5028263;28;20190;-66
2022/04/21 04:17:51;;;;;;;9.90;5.30;;;;;;;;;;5017313;28;20312;-65
2022/04/21 04:20:16;;;;;;;9.90;5.43;;;;;;;;;;5026110;28;20203;-65
2022/04/21 04:22:42;;;;;;;8.53;5.30;;;;;;;;;;5024418;28;20182;-65
2022/04/21 04:25:11;;;;;;;10.30;5.43;;;;;;;;;;5027643;28;20178;-65
2022/04/21 04:27:36;;;;;;;9.47;5.50;;;;;;;;;;5033633;28;20692;-65
2022/04/21 04:30:07;;;;;;;6.87;5.10;;;;;;;;;;5023122;28;20285;-66
2022/04/21 04:32:33;;;;;;;9.23;5.47;;;;;;;;;;5024873;28;20206;-66
2022/04/21 04:34:58;;;;;;;7.53;5.20;;;;;;;;;;5026395;28;20190;-66
2022/04/21 04:37:23;;;;;;;7.70;5.30;;;;;;;;;;5025062;28;20236;-66
2022/04/21 04:39:49;;;;;;;8.83;5.77;;;;;;;;;;5023855;28;20178;-65
2022/04/21 04:42:17;;;;;;;8.40;5.77;;;;;;;;;;5024073;28;20196;-66
2022/04/21 04:44:47;;;;;;;10.03;5.50;;;;;;;;;;5025647;28;20233;-66
2022/04/21 04:47:12;;;;;;;9.37;5.87;;;;;;;;;;5023527;28;20185;-66
2022/04/21 04:49:38;;;;;;;9.27;5.90;;;;;;;;;;5021387;28;20599;-65
2022/04/21 04:52:04;;;;;;;8.70;6.07;;;;;;;;;;5024795;28;20174;-65
2022/04/21 04:54:29;;;;;;;10.90;5.80;;;;;;;;;;5022754;28;20179;-65
2022/04/21 04:56:55;;;;;;;7.13;5.53;;;;;;;;;;5024122;28;20659;-65
2022/04/21 04:59:21;;;;;;;8.47;6.03;;;;;;;;;;5024607;28;20205;-66
2022/04/21 05:01:46;;;;;;;8.63;5.87;;;;;;;;;;5021959;28;20630;-66
2022/04/21 05:04:19;;;;;;;9.50;6.43;;;;;;;;;;5022851;28;20185;-66
2022/04/21 05:06:45;;;;;;;9.13;6.00;;;;;;;;;;5027030;28;20828;-66
2022/04/21 05:09:13;;;;;;;13.93;6.03;;;;;;;;;;5026139;28;20198;-66
2022/04/21 05:11:41;;;;;;;9.43;6.33;;;;;;;;;;5024676;28;20606;-66
2022/04/21 05:14:09;;;;;;;10.70;6.07;;;;;;;;;;5020882;28;20254;-65
2022/04/21 05:16:36;;;;;;;11.57;6.73;;;;;;;;;;5026339;28;20190;-65
2022/04/21 05:19:13;;;;;;;9.97;6.70;;;;;;;;;;5024897;28;20185;-65
2022/04/21 05:21:40;;;;;;;9.87;7.00;;;;;;;;;;5019166;28;20213;-65
2022/04/21 05:24:06;;;;;;;10.27;6.17;;;;;;;;;;5018101;28;20186;-66
2022/04/21 05:26:32;;;;;;;10.67;6.67;;;;;;;;;;5025021;28;20287;-66
2022/04/21 05:29:00;;;;;;;9.43;6.57;;;;;;;;;;5022074;28;20252;-66
2022/04/21 05:31:26;;;;;;;11.73;6.87;;;;;;;;;;5015114;28;20783;-66
2022/04/21 05:33:55;;;;;;;9.87;6.57;;;;;;;;;;5022393;28;20228;-66
2022/04/21 05:36:21;;;;;;;12.07;7.40;;;;;;;;;;5026653;28;20182;-66
2022/04/21 05:38:49;;;;;;;9.70;6.40;;;;;;;;;;5026926;28;20533;-65
2022/04/21 05:41:16;;;;;;;8.73;6.10;;;;;;;;;;5027855;28;20209;-65
2022/04/21 05:43:43;;;;;;;7.77;5.93;;;;;;;;;;5019116;28;20181;-66
2022/04/21 05:46:11;;;;;;;11.17;6.80;;;;;;;;;;5025891;28;20189;-66
2022/04/21 05:48:37;;;;;;;7.97;5.93;;;;;;;;;;5021192;28;20209;-65
2022/04/21 05:51:03;;;;;;;10.13;6.07;;;;;;;;;;5021683;28;20182;-65
2022/04/21 05:53:32;;;;;;;11.10;6.17;;;;;;;;;;5023515;28;20604;-65
2022/04/21 05:55:58;;;;;;;9.80;6.50;;;;;;;;;;5024175;28;20189;-65
2022/04/21 05:58:24;;;;;;;9.53;6.03;;;;;;;;;;5021124;28;20190;-65
2022/04/21 06:00:50;;;;;;;10.70;6.37;;;;;;;;;;5026029;28;20265;-65
2022/04/21 06:03:16;;;;;;;10.35;6.00;;;;;;;;;;5020155;28;20316;-66
2022/04/21 06:05:41;;;;;;;10.97;5.80;;;;;;;;;;5011427;28;20212;-65
2022/04/21 06:08:07;;;;;;;9.10;5.60;;;;;;;;;;5021816;28;20213;-66
2022/04/21 06:10:36;;;;;;;11.88;6.47;;;;;;;;;;5026511;28;20181;-65
2022/04/21 06:13:05;;;;;;;11.23;6.13;;;;;;;;;;5022205;28;20312;-65
2022/04/21 06:15:30;;;;;;;11.75;5.85;;;;;;;;;;5017045;28;20182;-65
2022/04/21 06:17:57;;;;;;;7.32;5.40;;;;;;;;;;5023637;28;20201;-65
2022/04/21 06:20:22;;;;;;;9.00;5.63;;;;;;;;;;5024286;28;20205;-65
2022/04/21 06:22:47;;;;;;;11.85;6.30;;;;;;;;;;5021933;28;20263;-65
2022/04/21 06:25:13;;;;;;;10.90;6.63;;;;;;;;;;5024206;28;20186;-65
2022/04/21 06:27:38;;;;;;;10.77;5.70;;;;;;;;;;5024456;28;20189;-65
2022/04/21 06:30:04;;;;;;;9.98;6.20;;;;;;;;;;5022600;28;20709;-65
2022/04/21 06:32:29;;;;;;;7.75;5.70;;;;;;;;;;5022885;28;20281;-66
2022/04/21 06:34:54;;;;;;;11.88;6.15;;;;;;;;;;5018444;28;20528;-66
2022/04/21 06:37:20;;;;;;;10.45;5.70;;;;;;;;;;5021820;28;20218;-66
2022/04/21 06:39:45;;;;;;;8.35;5.70;;;;;;;;;;5023794;28;20568;-66
2022/04/21 06:42:10;;;;;;;6.50;4.60;;;;;;;;;;5022291;28;20672;-66
2022/04/21 06:50:04;;;;;;;8.20;5.60;;;;;;;;;;5024760;28;20201;-66
2022/04/21 06:52:31;;;;;;;8.07;5.50;;;;;;;;;;5023352;28;20410;-65
2022/04/21 06:54:56;;;;;;;10.32;5.20;;;;;;;;;;5026400;28;20390;-66
2022/04/21 06:57:22;;;;;;;6.50;5.07;;;;;;;;;;5025651;28;20281;-66
2022/04/21 06:59:47;;;;;;;10.82;5.97;;;;;;;;;;5017198;28;20186;-65
2022/04/21 07:02:12;;;;;;;8.43;5.20;;;;;;;;;;5021676;28;20324;-65
2022/04/21 07:04:38;;;;;;;8.73;5.13;;;;;;;;;;5024962;28;20263;-65
2022/04/21 07:07:04;;;;;;;10.57;5.80;;;;;;;;;;5020565;28;20268;-66
2022/04/21 07:09:29;;;;;;;7.35;5.15;;;;;;;;;;5024196;28;20194;-65
2022/04/21 07:11:54;;;;;;;8.85;5.03;;;;;;;;;;5016787;28;20241;-65
2022/04/21 07:14:20;;;;;;;8.60;5.00;;;;;;;;;;5027658;28;20178;-65
2022/04/21 07:16:45;;;;;;;7.15;5.22;;;;;;;;;;5030075;28;20178;-65
2022/04/21 07:19:10;;;;;;;8.18;5.60;;;;;;;;;;5027089;28;20672;-65
2022/04/21 07:21:36;;;;;;;9.02;5.55;;;;;;;;;;5022306;28;20190;-65
2022/04/21 07:24:01;;;;;;;7.55;5.18;;;;;;;;;;5030355;28;20174;-65
2022/04/21 07:26:28;;;;;;;8.27;4.72;;;;;;;;;;5029968;28;20169;-65
2022/04/21 07:28:54;;;;;;;6.80;4.82;;;;;;;;;;5026854;28;20229;-65
2022/04/21 07:31:19;;;;;;;6.75;4.97;;;;;;;;;;5019916;28;20199;-66
2022/04/21 07:33:44;;;;;;;6.85;4.53;;;;;;;;;;5029495;28;20661;-65
2022/04/21 07:36:09;;;;;;;8.85;4.88;;;;;;;;;;5021332;28;20190;-65
2022/04/21 07:38:36;;;;;;;12.88;5.28;;;;;;;;;;5022373;28;20232;-66
2022/04/21 07:41:02;;;;;;;8.90;5.13;;;;;;;;;;5016970;28;20179;-66
2022/04/21 07:43:27;;;;;;;9.60;5.38;;;;;;;;;;5027355;28;20657;-66
2022/04/21 07:45:53;;;;;;;8.18;4.90;;;;;;;;;;5019062;28;20186;-66
2022/04/21 07:48:18;;;;;;;7.50;5.05;;;;;;;;;;5026454;28;20194;-66
2022/04/21 07:50:44;;;;;;;7.38;4.85;;;;;;;;;;5017389;28;20660;-66
2022/04/21 07:53:15;;;;;;;5.82;4.60;;;;;;;;;;5027028;28;20269;-66
2022/04/21 07:55:42;;;;;;;7.78;4.30;;;;;;;;;;5017119;28;20201;-66
2022/04/21 07:58:08;;;;;;;7.80;4.53;;;;;;;;;;5030547;28;20182;-66
2022/04/21 08:00:36;;;;;;;5.97;3.92;;;;;;;;;;5020879;28;20190;-66
2022/04/21 08:03:05;;;;;;;7.55;3.92;;;;;;;;;;5026456;28;20547;-66
2022/04/21 08:05:30;;;;;;;7.40;4.00;;;;;;;;;;5016509;28;20205;-66
2022/04/21 08:07:57;;;;;;;5.63;3.67;;;;;;;;;;5028310;28;20206;-66
2022/04/21 08:10:23;;;;;;;4.47;3.10;;;;;;;;;;5027937;28;20193;-67
2022/04/21 08:12:51;;;;;;;7.22;2.70;;;;;;;;;;5026210;28;20226;-66
2022/04/21 08:15:24;;;;;;;4.80;3.40;;;;;;;;;;5025399;28;20260;-66
2022/04/21 08:17:50;;;;;;;3.58;2.88;;;;;;;;;;5026684;28;20182;-66
2022/04/21 08:20:16;;;;;;;3.47;2.70;;;;;;;;;;5024322;28;20217;-66
2022/04/21 08:22:42;;;;;;;7.88;2.90;;;;;;;;;;5027776;28;20186;-66
2022/04/21 08:33:22;;;;;;;10.35;5.25;;;;;;;;;;5028657;28;20217;-67
2022/04/21 08:35:49;;;;;;;3.22;2.55;;;;;;;;;;5025403;28;20592;-66
2022/04/21 08:38:16;;;;;;;5.22;3.13;;;;;;;;;;5026454;28;20166;-65
2022/04/21 08:41:04;;;;;;;4.88;2.50;;;;;;;;;;5021565;28;20181;-66
2022/04/21 08:43:29;;;;;;;5.25;2.60;;;;;;;;;;5029185;28;20182;-66
2022/04/21 08:45:55;;;;;;;4.30;2.50;;;;;;;;;;5024057;28;20170;-66
2022/04/21 08:48:22;;;;;;;4.38;2.55;;;;;;;;;;5025768;28;20213;-66
2022/04/21 08:50:48;;;;;;;5.47;2.55;;;;;;;;;;5020291;28;20583;-66
2022/04/21 08:53:18;;;;;;;3.65;2.83;;;;;;;;;;5026091;28;20175;-66
2022/04/21 08:55:44;;;;;;;4.93;2.35;;;;;;;;;;5027411;28;20186;-66
2022/04/21 08:58:10;;;;;;;4.03;2.50;;;;;;;;;;5027208;28;20532;-66
2022/04/21 09:00:35;;;;;;;4.90;2.53;;;;;;;;;;5029390;28;20178;-67
2022/04/21 09:03:04;;;;;;;3.33;2.38;;;;;;;;;;5027825;28;20174;-66
2022/04/21 09:05:30;;;;;;;4.57;2.65;;;;;;;;;;5029028;28;20197;-66
2022/04/21 09:07:57;;;;;;;3.35;2.42;;;;;;;;;;5027857;28;20465;-67
2022/04/21 09:10:24;;;;;;;4.75;2.35;;;;;;;;;;5027588;28;20193;-67
2022/04/21 09:12:58;;;;;;;4.10;2.20;;;;;;;;;;5025386;28;20233;-66
2022/04/21 09:15:28;;;;;;;2.53;2.10;;;;;;;;;;5027132;28;20178;-66
2022/04/21 09:17:59;;;;;;;5.18;2.28;;;;;;;;;;5027505;28;20182;-64
2022/04/21 09:20:33;;;;;;;3.13;2.38;;;;;;;;;;5021562;28;20190;-65
2022/04/21 09:23:00;;;;;;;3.85;2.17;;;;;;;;;;5023711;28;20186;-66
2022/04/21 09:25:31;;;;;;;2.80;1.90;;;;;;;;;;5025289;28;20273;-66
2022/04/21 09:27:58;;;;;;;2.90;1.75;;;;;;;;;;5026817;28;20198;-66
2022/04/21 09:30:24;;;;;;;5.47;2.17;;;;;;;;;;5024722;28;20198;-66
2022/04/21 09:32:51;;;;;;;3.95;2.65;;;;;;;;;;5026372;28;20178;-65
2022/04/21 09:35:16;;;;;;;3.53;2.47;;;;;;;;;;5025716;28;20280;-67
2022/04/21 09:37:46;;;;;;;2.55;2.10;;;;;;;;;;5027153;28;20249;-66
2022/04/21 09:40:12;;;;;;;3.83;2.30;;;;;;;;;;5026135;28;20596;-66
2022/04/21 09:42:37;;;;;;;2.90;2.30;;;;;;;;;;5026936;28;20208;-66
2022/04/21 09:47:51;;;;;;;5.90;2.15;;;;;;;;;;5024105;28;20283;-66
2022/04/21 09:50:17;;;;;;;3.42;1.95;;;;;;;;;;5022020;28;20178;-65
2022/04/21 09:52:49;;;;;;;3.88;2.28;;;;;;;;;;5026630;28;20218;-66
2022/04/21 09:55:26;;;;;;;3.38;2.10;;;;;;;;;;5026718;28;20186;-67
2022/04/21 09:58:04;;;;;;;3.45;2.00;;;;;;;;;;5026113;28;20289;-66
2022/04/21 10:00:30;;;;;;;3.42;2.20;;;;;;;;;;5021998;28;20232;-67
2022/04/21 10:02:56;;;;;;;2.42;1.98;;;;;;;;;;5023654;28;20187;-66
2022/04/21 10:05:23;;;;;;;4.60;1.80;;;;;;;;;;5017775;28;20182;-66
2022/04/21 10:07:49;;;;;;;2.67;1.90;;;;;;;;;;5027209;28;20658;-66
2022/04/21 10:10:15;;;;;;;5.20;2.00;;;;;;;;;;5026634;28;20262;-67
2022/04/21 10:12:42;;;;;;;2.45;1.90;;;;;;;;;;5024499;28;20227;-66
2022/04/21 10:15:08;;;;;;;3.28;1.95;;;;;;;;;;5024767;28;20186;-67
2022/04/21 10:17:34;;;;;;;4.47;1.83;;;;;;;;;;5024045;28;20556;-66
2022/04/21 10:20:00;;;;;;;9.43;2.13;;;;;;;;;;5022514;28;20174;-67
2022/04/21 10:22:27;;;;;;;2.67;1.85;;;;;;;;;;5026160;28;20178;-66
2022/04/21 10:24:57;;;;;;;2.70;2.00;;;;;;;;;;5025959;28;20185;-67
2022/04/21 10:27:39;;;;;;;3.75;2.03;;;;;;;;;;5025817;28;20186;-66
2022/04/21 10:30:13;;;;;;;4.00;2.35;;;;;;;;;;5019509;28;20654;-66
2022/04/21 10:32:45;;;;;;;4.57;2.20;;;;;;;;;;5025499;28;20220;-66
2022/04/21 10:35:23;;;;;;;2.95;2.17;;;;;;;;;;5006730;28;20186;-66
2022/04/21 10:38:14;;;;;;;3.33;2.33;;;;;;;;;;5026457;28;20651;-67
2022/04/21 10:40:56;;;;;;;2.65;2.13;;;;;;;;;;5022661;28;20221;-67
2022/04/21 10:43:21;;;;;;;4.53;1.98;;;;;;;;;;5032974;28;20197;-68
2022/04/21 10:46:17;;;;;;;5.25;2.00;;;;;;;;;;5026628;28;20235;-67
2022/04/21 10:48:44;;;;;;;5.43;2.28;;;;;;;;;;5026787;28;20347;-67
2022/04/21 10:51:10;;;;;;;2.85;2.17;;;;;;;;;;5028646;28;20212;-66
2022/04/21 10:59:28;;;;;;;3.20;2.20;;;;;;;;;;5033508;28;20484;-66
2022/04/21 11:01:54;;;;;;;4.22;2.17;;;;;;;;;;5033276;28;20182;-66
2022/04/21 11:04:21;;;;;;;4.50;2.13;;;;;;;;;;5033799;28;20719;-66
2022/04/21 11:06:51;;;;;;;3.78;2.20;;;;;;;;;;5025295;28;20526;-66
2022/04/21 11:09:36;;;;;;;3.00;2.08;;;;;;;;;;5033035;28;20666;-67
2022/04/21 11:12:04;;;;;;;2.83;2.20;;;;;;;;;;5029797;28;20644;-67
2022/04/21 11:14:31;;;;;;;3.53;2.42;;;;;;;;;;5032872;28;20236;-67
2022/04/21 11:16:57;;;;;;;3.83;2.33;;;;;;;;;;5031384;28;20197;-66
2022/04/21 11:19:28;;;;;;;5.68;2.03;;;;;;;;;;5032916;28;20178;-67
2022/04/21 11:21:58;;;;;;;4.90;2.35;;;;;;;;;;5031597;28;20781;-67
2022/04/21 11:24:24;;;;;;;4.10;1.88;;;;;;;;;;5032529;28;20551;-67
2022/04/21 11:26:57;;;;;;;2.50;2.10;;;;;;;;;;5030420;28;20186;-66
2022/04/21 11:29:22;;;;;;;2.78;2.00;;;;;;;;;;5033060;28;20209;-65
2022/04/21 11:31:53;;;;;;;4.95;2.35;;;;;;;;;;5031266;28;20312;-66
2022/04/21 11:34:22;;;;;;;4.28;1.90;;;;;;;;;;5033161;28;20276;-66
2022/04/21 11:36:48;;;;;;;4.60;1.90;;;;;;;;;;5029273;28;20269;-65
2022/04/21 11:39:14;;;;;;;2.97;1.90;;;;;;;;;;5033336;28;20599;-66
2022/04/21 11:41:44;;;;;;;5.03;2.35;;;;;;;;;;5029725;28;20190;-66
2022/04/21 11:44:11;;;;;;;4.93;2.35;;;;;;;;;;5031809;28;20672;-67
2022/04/21 11:46:40;;;;;;;3.33;2.08;;;;;;;;;;5025910;28;20229;-66
2022/04/21 11:49:08;;;;;;;3.92;2.30;;;;;;;;;;5030149;28;20775;-66
2022/04/21 11:51:33;;;;;;;4.70;2.10;;;;;;;;;;5028657;28;20268;-67
2022/04/21 11:54:06;;;;;;;3.80;2.28;;;;;;;;;;5026033;28;20630;-67
2022/04/21 11:56:32;;;;;;;3.85;2.13;;;;;;;;;;5028620;28;20197;-67
2022/04/21 11:59:05;;;;;;;6.78;2.67;;;;;;;;;;5029301;28;21154;-67
2022/04/21 12:07:00;;;;;;;2.60;2.05;;;;;;;;;;5028019;28;20244;-66
2022/04/21 12:09:29;;;;;;;3.58;2.15;;;;;;;;;;5026175;28;20294;-66
2022/04/21 12:11:57;;;;;;;6.35;2.42;;;;;;;;;;5028165;28;20261;-66
2022/04/21 12:14:22;;;;;;;6.95;2.60;;;;;;;;;;5029845;28;20197;-67
2022/04/21 12:16:53;;;;;;;4.40;2.42;;;;;;;;;;5028540;28;20274;-67
2022/04/21 12:19:41;;;;;;;5.32;2.90;;;;;;;;;;5026611;28;20189;-67
2022/04/21 12:22:10;;;;;;;4.85;2.53;;;;;;;;;;5026072;28;20281;-67
2022/04/21 12:24:40;;;;;;;4.50;2.70;;;;;;;;;;5029154;28;20265;-67
2022/04/21 12:27:34;;;;;;;4.53;2.50;;;;;;;;;;5026245;28;20178;-67
2022/04/21 12:30:04;;;;;;;3.55;2.30;;;;;;;;;;5026205;28;20175;-66
2022/04/21 12:32:32;;;;;;;4.00;2.83;;;;;;;;;;5025575;28;20692;-66
2022/04/21 12:34:59;;;;;;;3.30;2.45;;;;;;;;;;5028629;28;20185;-67
2022/04/21 12:37:34;;;;;;;3.67;2.47;;;;;;;;;;5017268;28;20216;-66
2022/04/21 12:40:02;;;;;;;5.07;2.60;;;;;;;;;;5027640;28;20265;-66
2022/04/21 12:42:28;;;;;;;3.78;2.15;;;;;;;;;;5025540;28;20186;-66
2022/04/21 12:44:54;;;;;;;4.13;2.78;;;;;;;;;;5025774;28;20184;-66
2022/04/21 12:47:21;;;;;;;3.72;3.00;;;;;;;;;;5021504;28;20553;-66
2022/04/21 12:50:06;;;;;;;4.05;2.60;;;;;;;;;;5027719;28;20182;-66
2022/04/21 12:52:47;;;;;;;5.40;2.65;;;;;;;;;;5025377;28;20268;-66
2022/04/21 12:55:22;;;;;;;5.18;2.65;;;;;;;;;;5027932;28;20329;-66
2022/04/21 12:58:11;;;;;;;8.02;3.13;;;;;;;;;;5025996;28;20618;-66
2022/04/21 13:00:41;;;;;;;5.60;2.88;;;;;;;;;;5026593;28;20338;-66
2022/04/21 13:03:10;;;;;;;2.83;2.53;;;;;;;;;;5026208;28;20186;-66
2022/04/21 13:05:50;;;;;;;3.33;2.40;;;;;;;;;;5024481;28;20195;-66
2022/04/21 13:08:16;;;;;;;4.30;2.58;;;;;;;;;;5023808;28;20288;-65
2022/04/21 13:10:42;;;;;;;7.38;2.75;;;;;;;;;;5026573;28;20185;-66
2022/04/21 13:13:07;;;;;;;3.72;2.80;;;;;;;;;;5027831;28;20222;-66
2022/04/21 13:15:32;;;;;;;3.90;2.40;;;;;;;;;;5025234;28;20293;-67
2022/04/21 13:17:58;;;;;;;2.97;1.95;;;;;;;;;;5027200;28;20182;-66
2022/04/21 13:23:07;;;;;;;4.35;2.03;;;;;;;;;;5027519;28;20251;-66
2022/04/21 13:25:33;;;;;;;4.07;2.00;;;;;;;;;;5025576;28;20273;-66
2022/04/21 13:27:58;;;;;;;4.35;2.10;;;;;;;;;;5019458;28;20204;-66
2022/04/21 13:30:24;;;;;;;6.53;2.47;;;;;;;;;;5028050;28;20305;-67
2022/04/21 13:35:33;;;;;;;3.55;2.50;;;;;;;;;;5022153;28;20240;-67
2022/04/21 13:37:58;;;;;;;5.97;2.42;;;;;;;;;;5025469;28;20193;-66
2022/04/21 13:40:23;;;;;;;3.92;2.30;;;;;;;;;;5027492;28;20502;-67
2022/04/21 13:42:49;;;;;;;9.10;3.00;;;;;;;;;;5023312;28;20202;-66
2022/04/21 13:45:15;;;;;;;4.10;2.50;;;;;;;;;;5025151;28;20205;-66
2022/04/21 13:47:40;;;;;;;7.30;2.70;;;;;;;;;;5026430;28;20202;-67
2022/04/21 13:50:06;;;;;;;6.93;2.42;;;;;;;;;;5025273;28;20205;-66
2022/04/21 13:52:32;;;;;;;5.72;2.55;;;;;;;;;;5025556;28;20243;-66
2022/04/21 13:54:57;;;;;;;4.68;2.67;;;;;;;;;;5025122;28;20252;-68
2022/04/21 13:57:23;;;;;;;6.45;2.58;;;;;;;;;;5027003;28;20213;-66
2022/04/21 13:59:48;;;;;;;4.15;2.42;;;;;;;;;;5022098;28;20186;-66
2022/04/21 14:02:13;;;;;;;6.63;2.83;;;;;;;;;;5022357;28;21580;-66
2022/04/21 14:04:39;;;;;;;5.82;3.67;;;;;;;;;;5024536;28;20186;-67
2022/04/21 14:07:04;;;;;;;5.82;3.20;;;;;;;;;;5022064;28;20175;-66
2022/04/21 14:09:30;;;;;;;8.55;3.15;;;;;;;;;;5021409;28;20740;-68
2022/04/21 14:11:55;;;;;;;5.43;3.58;;;;;;;;;;5024502;28;20599;-67
2022/04/21 14:14:20;;;;;;;6.65;3.25;;;;;;;;;;5025257;28;20194;-67
2022/04/21 14:16:46;;;;;;;6.47;3.17;;;;;;;;;;5023230;28;20186;-67
2022/04/21 14:19:11;;;;;;;5.80;3.63;;;;;;;;;;5026792;28;20174;-67
2022/04/21 14:21:36;;;;;;;9.00;3.83;;;;;;;;;;5023530;28;20192;-67
2022/04/21 14:24:02;;;;;;;6.15;3.20;;;;;;;;;;5024237;28;20278;-67
2022/04/21 14:26:28;;;;;;;6.00;3.30;;;;;;;;;;5022217;28;20190;-66
2022/04/21 14:28:53;;;;;;;10.80;3.70;;;;;;;;;;5026703;28;20569;-67
2022/04/21 14:31:19;;;;;;;3.67;3.00;;;;;;;;;;5017672;28;20226;-66
2022/04/21 14:33:44;;;;;;;8.48;3.67;;;;;;;;;;5015916;28;20193;-67
2022/04/21 14:36:10;;;;;;;6.68;3.13;;;;;;;;;;5014023;28;20185;-66
2022/04/21 14:44:07;;;;;;;5.65;2.55;;;;;;;;;;5015015;28;20209;-67
2022/04/21 14:46:34;;;;;;;5.35;2.97;;;;;;;;;;5013858;28;20764;-66
2022/04/21 14:49:00;;;;;;;6.72;2.75;;;;;;;;;;5017348;28;20198;-66
2022/04/21 14:51:27;;;;;;;5.88;2.85;;;;;;;;;;5023001;28;20590;-67
2022/04/21 14:53:52;;;;;;;6.38;3.00;;;;;;;;;;5017925;28;20684;-67
2022/04/21 14:56:18;;;;;;;7.13;2.75;;;;;;;;;;5021301;28;20301;-66
2022/04/21 14:58:43;;;;;;;4.40;2.72;;;;;;;;;;5019044;28;20239;-66
2022/04/21 15:01:08;;;;;;;4.45;2.60;;;;;;;;;;5022302;28;20174;-66
2022/04/21 15:03:36;;;;;;;5.55;2.85;;;;;;;;;;5021589;28;20186;-67
2022/04/21 15:06:04;;;;;;;5.72;2.85;;;;;;;;;;5022626;28;20178;-66
2022/04/21 15:08:30;;;;;;;6.18;2.67;;;;;;;;;;5022612;28;20213;-66
2022/04/21 15:10:55;;;;;;;6.82;2.60;;;;;;;;;;5019874;28;20178;-66
2022/04/21 15:13:21;;;;;;;5.30;2.45;;;;;;;;;;5021473;28;20222;-66
2022/04/21 15:15:46;;;;;;;3.65;2.60;;;;;;;;;;5020879;28;20543;-66
2022/04/21 15:18:11;;;;;;;4.43;2.90;;;;;;;;;;5020476;28;20193;-66
2022/04/21 15:20:37;;;;;;;4.35;2.75;;;;;;;;;;5024997;28;20183;-67
2022/04/21 15:23:03;;;;;;;5.85;2.83;;;;;;;;;;5024664;28;20583;-66
2022/04/21 15:25:29;;;;;;;4.82;2.55;;;;;;;;;;5025807;28;20324;-67
2022/04/21 15:27:57;;;;;;;5.40;2.28;;;;;;;;;;5022287;28;20372;-67
2022/04/21 15:30:24;;;;;;;4.55;2.40;;;;;;;;;;5026372;28;20189;-67
2022/04/21 15:32:49;;;;;;;4.65;2.80;;;;;;;;;;5023917;28;20190;-66
2022/04/21 15:35:15;;;;;;;5.70;2.67;;;;;;;;;;5028147;28;20182;-66
2022/04/21 15:37:43;;;;;;;4.20;2.65;;;;;;;;;;5026325;28;20189;-66
2022/04/21 15:40:09;;;;;;;4.90;2.50;;;;;;;;;;5025686;28;20186;-66
2022/04/21 15:42:37;;;;;;;3.60;2.50;;;;;;;;;;5026353;28;20666;-66